createdAt,value
2023-02-16T00:01:19.763Z,59.08
2023-02-16T00:04:26.017Z,59.28
2023-02-16T00:07:28.140Z,59.05
2023-02-16T00:10:34.277Z,56.58
2023-02-16T00:13:45.315Z,52.00
2023-02-16T00:16:47.857Z,59.00
2023-02-16T00:19:50.105Z,48.80
2023-02-16T00:22:52.582Z,60.38
2023-02-16T00:25:54.865Z,57.15
2023-02-16T00:29:00.890Z,48.38
2023-02-16T00:32:05.766Z,57.55
2023-02-16T00:35:19.956Z,62.88
2023-02-16T00:38:22.231Z,59.08
2023-02-16T00:41:44.077Z,58.45
2023-02-16T00:44:55.658Z,46.20
2023-02-16T00:47:58.567Z,62.22
2023-02-16T00:51:01.296Z,55.15
2023-02-16T00:54:03.902Z,55.83
2023-02-16T00:57:06.040Z,50.08
2023-02-16T01:00:12.431Z,55.15
2023-02-16T01:03:19.140Z,46.83
2023-02-16T01:06:40.379Z,52.30
2023-02-16T01:10:01.089Z,56.42
2023-02-16T01:13:04.804Z,50.08
2023-02-16T01:16:13.365Z,50.92
2023-02-16T01:19:16.394Z,57.10
2023-02-16T01:22:19.153Z,54.92
2023-02-16T01:25:21.797Z,54.78
2023-02-16T01:28:26.169Z,50.47
2023-02-16T01:31:28.695Z,47.78
2023-02-16T01:34:30.996Z,55.42
2023-02-16T01:37:33.623Z,50.50
2023-02-16T01:40:38.278Z,54.83
2023-02-16T01:43:48.062Z,55.80
2023-02-16T01:47:07.548Z,47.30
2023-02-16T01:50:41.485Z,48.72
2023-02-16T01:53:48.810Z,53.50
2023-02-16T01:57:05.110Z,54.35
2023-02-16T02:00:26.390Z,46.25
2023-02-16T02:03:52.160Z,57.83
2023-02-16T02:06:55.827Z,52.95
2023-02-16T02:10:17.330Z,54.72
2023-02-16T02:13:26.925Z,51.53
2023-02-16T02:16:30.083Z,49.50
2023-02-16T02:19:47.967Z,48.83
2023-02-16T02:23:33.954Z,44.65
2023-02-16T02:27:04.613Z,52.97
2023-02-16T02:30:41.816Z,48.45
2023-02-16T02:34:19.878Z,57.28
2023-02-16T02:37:43.679Z,50.03
2023-02-16T02:41:08.116Z,46.72
2023-02-16T02:44:13.722Z,45.88
2023-02-16T02:47:16.872Z,53.42
2023-02-16T02:50:38.371Z,61.53
2023-02-16T02:53:49.268Z,48.25
2023-02-16T02:57:54.433Z,50.15
2023-02-16T03:01:00.009Z,50.20
2023-02-16T03:07:11.752Z,37.33
2023-02-16T03:10:39.913Z,44.63
2023-02-16T03:13:48.693Z,41.75
2023-02-16T03:17:24.415Z,41.88
2023-02-16T03:20:45.176Z,42.22
2023-02-16T03:24:09.665Z,47.20
2023-02-16T03:27:33.060Z,46.35
2023-02-16T03:30:35.676Z,47.80
2023-02-16T03:33:39.061Z,52.60
2023-02-16T03:36:43.696Z,45.08
2023-02-16T03:40:04.658Z,49.17
2023-02-16T03:43:08.597Z,47.15
2023-02-16T03:46:11.255Z,49.58
2023-02-16T03:49:13.936Z,47.33
2023-02-16T03:52:16.106Z,52.15
2023-02-16T03:55:18.923Z,52.95
2023-02-16T03:58:24.365Z,44.50
2023-02-16T04:01:27.323Z,51.58
2023-02-16T04:04:30.211Z,44.38
2023-02-16T04:07:32.420Z,43.95
2023-02-16T04:10:35.516Z,48.47
2023-02-16T04:13:37.731Z,47.17
2023-02-16T04:16:40.223Z,47.75
2023-02-16T04:19:42.425Z,52.60
2023-02-16T04:22:45.378Z,56.67
2023-02-16T04:25:47.554Z,56.22
2023-02-16T04:28:50.034Z,47.75
2023-02-16T04:31:53.188Z,48.95
2023-02-16T04:34:55.951Z,48.83
2023-02-16T04:37:58.153Z,54.25
2023-02-16T04:41:00.656Z,47.08
2023-02-16T04:44:02.922Z,44.25
2023-02-16T04:47:05.420Z,53.70
2023-02-16T04:50:09.297Z,43.58
2023-02-16T04:53:11.827Z,41.37
2023-02-16T04:56:14.513Z,44.03
2023-02-16T04:59:17.044Z,42.85
2023-02-16T05:02:19.274Z,41.95
2023-02-16T05:05:21.874Z,46.78
2023-02-16T05:08:24.079Z,46.60
2023-02-16T05:11:45.599Z,42.80
2023-02-16T05:14:48.513Z,47.45
2023-02-16T05:17:51.118Z,48.20
2023-02-16T05:21:12.165Z,51.17
2023-02-16T05:24:14.993Z,47.45
2023-02-16T05:27:21.779Z,44.03
2023-02-16T05:30:24.564Z,42.00
2023-02-16T05:33:26.821Z,44.30
2023-02-16T05:36:29.428Z,46.33
2023-02-16T05:39:32.028Z,50.30
2023-02-16T05:42:34.804Z,59.63
2023-02-16T05:45:38.728Z,51.20
2023-02-16T05:48:41.267Z,52.97
2023-02-16T05:51:43.940Z,54.92
2023-02-16T05:54:46.501Z,64.80
2023-02-16T05:57:48.713Z,49.22
2023-02-16T06:00:51.196Z,50.33
2023-02-16T06:03:53.987Z,57.45
2023-02-16T06:06:56.395Z,54.03
2023-02-16T06:09:59.038Z,56.90
2023-02-16T06:13:01.372Z,53.35
2023-02-16T06:16:04.782Z,54.08
2023-02-16T06:19:07.988Z,49.63
2023-02-16T06:22:11.931Z,63.95
2023-02-16T06:25:14.280Z,52.75
2023-02-16T06:28:16.846Z,63.50
2023-02-16T06:31:19.733Z,48.20
2023-02-16T06:34:22.422Z,52.60
2023-02-16T06:37:25.445Z,48.08
2023-02-16T06:40:27.956Z,46.67
2023-02-16T06:43:30.966Z,55.47
2023-02-16T06:46:34.080Z,61.40
2023-02-16T06:49:36.373Z,56.72
2023-02-16T06:52:39.030Z,51.97
2023-02-16T06:55:41.687Z,59.13
2023-02-16T06:58:44.450Z,62.67
2023-02-16T07:01:48.512Z,66.37
2023-02-16T07:04:51.189Z,68.25
2023-02-16T07:07:53.734Z,71.78
2023-02-16T07:10:56.359Z,79.03
2023-02-16T07:13:58.602Z,66.53
2023-02-16T07:17:04.253Z,71.68
2023-02-16T07:20:07.627Z,84.53
2023-02-16T07:23:10.457Z,71.80
2023-02-16T07:26:13.041Z,80.40
2023-02-16T07:29:16.216Z,72.37
2023-02-16T07:32:18.611Z,80.40
2023-02-16T07:35:22.125Z,76.93
2023-02-16T07:38:24.464Z,72.70
2023-02-16T07:41:26.974Z,86.12
2023-02-16T07:44:31.920Z,77.87
2023-02-16T07:47:34.778Z,76.68
2023-02-16T07:50:37.690Z,73.50
2023-02-16T07:53:40.981Z,72.32
2023-02-16T07:56:43.858Z,64.60
2023-02-16T07:59:46.579Z,63.87
2023-02-16T08:02:49.743Z,67.35
2023-02-16T08:05:52.595Z,65.95
2023-02-16T08:08:54.763Z,79.68
2023-02-16T08:11:57.193Z,79.72
2023-02-16T08:14:59.413Z,74.80
2023-02-16T08:18:02.087Z,84.87
2023-02-16T08:21:14.482Z,70.87
2023-02-16T08:24:17.125Z,75.35
2023-02-16T08:27:19.674Z,72.55
2023-02-16T08:30:24.776Z,69.40
2023-02-16T08:33:27.246Z,82.15
2023-02-16T08:36:35.737Z,79.62
2023-02-16T08:39:38.068Z,81.15
2023-02-16T08:42:40.997Z,84.13
2023-02-16T08:45:47.649Z,94.20
2023-02-16T08:48:50.502Z,98.68
2023-02-16T08:51:56.043Z,100.38
2023-02-16T08:54:58.578Z,88.78
2023-02-16T08:58:01.084Z,106.68
2023-02-16T09:01:06.240Z,101.75
2023-02-16T09:04:09.512Z,97.60
2023-02-16T09:07:11.980Z,99.55
2023-02-16T09:10:14.135Z,100.07
2023-02-16T09:13:16.693Z,103.57
2023-02-16T09:16:22.544Z,97.15
2023-02-16T09:19:25.983Z,98.00
2023-02-16T09:22:28.347Z,86.40
2023-02-16T09:25:30.944Z,110.03
2023-02-16T09:28:35.029Z,98.03
2023-02-16T09:31:39.506Z,106.10
2023-02-16T09:34:44.813Z,115.18
2023-02-16T09:37:49.828Z,120.50
2023-02-16T09:40:52.936Z,109.82
2023-02-16T09:44:07.170Z,113.37
2023-02-16T09:47:24.486Z,110.05
2023-02-16T09:50:52.446Z,120.45
2023-02-16T09:54:09.819Z,116.22
2023-02-16T09:57:38.407Z,103.68
2023-02-16T10:00:55.864Z,104.43
2023-02-16T10:04:05.678Z,102.70
2023-02-16T10:07:42.513Z,108.15
2023-02-16T10:10:50.972Z,120.20
2023-02-16T10:13:57.341Z,112.17
2023-02-16T10:17:31.467Z,107.32
2023-02-16T10:20:39.336Z,104.50
2023-02-16T10:23:48.422Z,111.35
2023-02-16T10:26:59.646Z,106.50
2023-02-16T10:30:02.274Z,105.65
2023-02-16T10:33:32.366Z,100.18
2023-02-16T10:37:00.257Z,97.50
2023-02-16T10:40:08.459Z,89.68
2023-02-16T10:43:18.191Z,87.82
2023-02-16T10:46:25.453Z,74.22
2023-02-16T10:49:32.313Z,72.68
2023-02-16T10:52:40.618Z,60.03
2023-02-16T10:55:43.696Z,60.85
2023-02-16T10:58:47.257Z,70.07
2023-02-16T11:01:59.101Z,68.45
2023-02-16T11:05:02.472Z,58.42
2023-02-16T11:08:10.767Z,73.70
2023-02-16T11:11:13.373Z,76.70
2023-02-16T11:14:25.644Z,66.55
2023-02-16T11:17:28.497Z,65.60
2023-02-16T11:20:32.743Z,70.57
2023-02-16T11:23:40.459Z,76.87
2023-02-16T11:26:43.647Z,72.87
2023-02-16T11:29:46.353Z,72.22
2023-02-16T11:32:51.461Z,81.25
2023-02-16T11:35:55.497Z,73.43
2023-02-16T11:39:06.966Z,76.10
2023-02-16T11:42:24.525Z,68.82
2023-02-16T11:45:31.511Z,84.05
2023-02-16T11:48:34.649Z,78.78
2023-02-16T11:51:37.445Z,82.62
2023-02-16T11:54:48.918Z,74.62
2023-02-16T11:57:51.835Z,82.15
2023-02-16T12:01:06.092Z,79.75
2023-02-16T12:04:23.728Z,86.65
2023-02-16T12:07:47.306Z,80.97
2023-02-16T12:11:13.218Z,71.55
2023-02-16T12:14:41.978Z,81.22
2023-02-16T12:18:12.972Z,72.60
2023-02-16T12:21:41.158Z,68.03
2023-02-16T12:24:57.701Z,63.40
2023-02-16T12:28:06.185Z,61.63
2023-02-16T12:34:43.047Z,60.47
2023-02-16T12:38:08.564Z,71.37
2023-02-16T12:41:16.984Z,64.65
2023-02-16T12:44:44.510Z,66.90
2023-02-16T12:47:57.554Z,60.15
2023-02-16T12:51:07.080Z,60.90
2023-02-16T12:54:48.147Z,59.75
2023-02-16T12:57:59.685Z,62.30
2023-02-16T13:01:14.892Z,63.40
2023-02-16T13:04:44.148Z,56.08
2023-02-16T13:07:49.236Z,54.35
2023-02-16T13:11:28.386Z,55.95
2023-02-16T13:14:34.801Z,54.53
2023-02-16T13:17:43.366Z,54.97
2023-02-16T13:20:53.880Z,53.38
2023-02-16T13:24:35.101Z,56.15
2023-02-16T13:27:45.587Z,54.55
2023-02-16T13:31:30.154Z,65.25
2023-02-16T13:34:35.704Z,44.03
2023-02-16T13:37:47.554Z,37.05
2023-02-16T13:41:33.580Z,47.80
2023-02-16T13:44:48.442Z,49.10
2023-02-16T13:47:53.537Z,44.95
2023-02-16T13:50:59.759Z,49.00
2023-02-16T13:54:03.785Z,48.42
2023-02-16T13:57:12.258Z,48.60
2023-02-16T14:00:35.628Z,46.33
2023-02-16T14:03:39.305Z,46.83
2023-02-16T14:06:42.849Z,58.13
2023-02-16T14:09:47.030Z,54.42
2023-02-16T14:12:49.934Z,50.97
2023-02-16T14:15:56.479Z,50.63
2023-02-16T14:19:18.822Z,52.35
2023-02-16T14:22:43.397Z,49.40
2023-02-16T14:25:45.652Z,46.67
2023-02-16T14:29:10.230Z,44.95
2023-02-16T14:32:38.482Z,51.58
2023-02-16T14:36:02.478Z,49.85
2023-02-16T14:39:11.975Z,51.95
2023-02-16T14:42:18.612Z,54.22
2023-02-16T14:45:58.633Z,54.90
2023-02-16T14:49:55.158Z,52.53
2023-02-16T14:53:06.316Z,53.47
2023-02-16T14:56:28.402Z,52.22
2023-02-16T14:59:51.288Z,60.92
2023-02-16T15:02:59.666Z,55.70
2023-02-16T15:06:06.303Z,63.47
2023-02-16T15:09:23.924Z,59.95
2023-02-16T15:12:33.403Z,63.72
2023-02-16T15:15:51.073Z,65.75
2023-02-16T15:18:56.194Z,61.97
2023-02-16T15:22:19.645Z,68.35
2023-02-16T15:25:29.369Z,68.00
2023-02-16T15:28:39.779Z,61.53
2023-02-16T15:31:42.341Z,63.90
2023-02-16T15:34:46.140Z,66.65
2023-02-16T15:37:48.536Z,65.82
2023-02-16T15:40:56.157Z,67.90
2023-02-16T15:43:59.566Z,63.42
2023-02-16T15:47:11.036Z,60.53
2023-02-16T15:50:14.263Z,61.65
2023-02-16T15:53:34.857Z,64.20
2023-02-16T15:56:45.968Z,69.40
2023-02-16T15:59:51.472Z,75.78
2023-02-16T16:02:58.331Z,59.00
2023-02-16T16:06:04.840Z,63.42
2023-02-16T16:09:17.700Z,60.72
2023-02-16T16:12:20.998Z,68.43
2023-02-16T16:15:26.292Z,70.85
2023-02-16T16:18:46.211Z,66.72
2023-02-16T16:21:54.511Z,69.95
2023-02-16T16:24:57.378Z,64.45
2023-02-16T16:27:59.859Z,60.72
2023-02-16T16:31:10.500Z,70.32
2023-02-16T16:34:32.365Z,68.45
2023-02-16T16:37:36.946Z,75.55
2023-02-16T16:40:39.705Z,73.20
2023-02-16T16:43:53.820Z,67.65
2023-02-16T16:46:56.250Z,71.75
2023-02-16T16:50:04.726Z,71.00
2023-02-16T16:53:29.984Z,79.97
2023-02-16T16:56:38.176Z,73.07
2023-02-16T16:59:40.353Z,83.00
2023-02-16T17:02:42.960Z,77.10
2023-02-16T17:05:45.576Z,72.47
2023-02-16T17:08:48.776Z,76.07
2023-02-16T17:11:50.996Z,76.18
2023-02-16T17:14:53.929Z,68.97
2023-02-16T17:17:57.446Z,77.12
2023-02-16T17:21:00.001Z,74.37
2023-02-16T17:24:02.290Z,82.55
2023-02-16T17:27:05.001Z,77.47
2023-02-16T17:30:07.742Z,76.28
2023-02-16T17:33:11.207Z,96.22
2023-02-16T17:36:15.602Z,76.80
2023-02-16T17:39:18.253Z,84.72
2023-02-16T17:42:20.542Z,94.95
2023-02-16T17:45:23.154Z,81.80
2023-02-16T17:48:30.404Z,69.03
2023-02-16T17:51:36.215Z,73.68
2023-02-16T17:54:39.309Z,70.72
2023-02-16T17:57:41.783Z,73.18
2023-02-16T18:00:45.248Z,77.72
2023-02-16T18:03:47.889Z,80.50
2023-02-16T18:06:50.789Z,88.25
2023-02-16T18:09:54.252Z,95.03
2023-02-16T18:12:56.482Z,82.88
2023-02-16T18:16:00.306Z,82.65
2023-02-16T18:19:03.297Z,77.32
2023-02-16T18:22:05.945Z,83.60
2023-02-16T18:25:08.793Z,77.57
2023-02-16T18:28:20.134Z,79.05
2023-02-16T18:31:22.432Z,78.85
2023-02-16T18:34:26.299Z,90.00
2023-02-16T18:37:28.848Z,88.72
2023-02-16T18:40:31.550Z,87.70
2023-02-16T18:43:35.704Z,93.62
2023-02-16T18:46:38.440Z,90.22
2023-02-16T18:49:41.839Z,97.93
2023-02-16T18:52:44.973Z,96.80
2023-02-16T18:55:47.317Z,98.37
2023-02-16T18:58:49.982Z,87.78
2023-02-16T19:01:59.618Z,80.80
2023-02-16T19:05:02.128Z,78.18
2023-02-16T19:08:04.472Z,79.72
2023-02-16T19:11:07.096Z,84.72
2023-02-16T19:14:11.105Z,92.15
2023-02-16T19:17:13.575Z,84.37
2023-02-16T19:20:18.668Z,82.00
2023-02-16T19:23:21.496Z,92.07
2023-02-16T19:26:23.764Z,89.50
2023-02-16T19:29:26.285Z,92.22
2023-02-16T19:32:29.022Z,85.00
2023-02-16T19:35:31.614Z,87.32
2023-02-16T19:38:34.121Z,79.40
2023-02-16T19:41:39.348Z,88.18
2023-02-16T19:44:41.845Z,85.35
2023-02-16T19:47:44.308Z,85.45
2023-02-16T19:50:46.646Z,84.20
2023-02-16T19:53:49.379Z,94.43
2023-02-16T19:56:53.692Z,96.90
2023-02-16T19:59:56.142Z,93.35
2023-02-16T20:02:58.499Z,87.35
2023-02-16T20:06:01.429Z,91.03
2023-02-16T20:09:04.087Z,82.18
2023-02-16T20:12:07.338Z,91.37
2023-02-16T20:15:09.916Z,83.62
2023-02-16T20:18:12.444Z,89.50
2023-02-16T20:21:18.662Z,94.87
2023-02-16T20:24:21.238Z,82.75
2023-02-16T20:27:23.508Z,88.53
2023-02-16T20:30:27.479Z,96.53
2023-02-16T20:33:29.780Z,86.43
2023-02-16T20:36:32.533Z,94.85
2023-02-16T20:39:34.915Z,89.00
2023-02-16T20:42:37.531Z,93.43
2023-02-16T20:45:42.329Z,88.90
2023-02-16T20:48:46.145Z,88.80
2023-02-16T20:51:48.344Z,86.22
2023-02-16T20:54:50.929Z,90.95
2023-02-16T20:57:53.070Z,83.05
2023-02-16T21:00:56.330Z,87.55
2023-02-16T21:03:59.804Z,94.90
2023-02-16T21:07:02.292Z,88.80
2023-02-16T21:10:06.325Z,92.80
2023-02-16T21:13:08.993Z,80.70
2023-02-16T21:16:11.594Z,95.15
2023-02-16T21:19:22.882Z,79.72
2023-02-16T21:22:25.915Z,82.55
2023-02-16T21:25:28.404Z,86.80
2023-02-16T21:28:31.017Z,95.28
2023-02-16T21:31:33.981Z,82.03
2023-02-16T21:34:37.029Z,83.07
2023-02-16T21:37:39.609Z,92.18
2023-02-16T21:41:00.315Z,94.82
2023-02-16T21:44:08.764Z,89.95
2023-02-16T21:47:31.800Z,93.15
2023-02-16T21:50:39.027Z,89.20
2023-02-16T21:53:42.249Z,91.32
2023-02-16T21:56:51.147Z,91.25
2023-02-16T21:59:54.247Z,84.18
2023-02-16T22:02:58.483Z,77.65
2023-02-16T22:06:03.728Z,86.75
2023-02-16T22:09:09.825Z,75.85
2023-02-16T22:12:12.444Z,87.47
2023-02-16T22:15:14.755Z,79.00
2023-02-16T22:18:17.307Z,88.80
2023-02-16T22:21:19.476Z,83.43
2023-02-16T22:24:21.906Z,79.37
2023-02-16T22:27:24.158Z,82.88
2023-02-16T22:30:26.708Z,82.60
2023-02-16T22:33:28.978Z,89.03
2023-02-16T22:36:32.154Z,76.45
2023-02-16T22:39:34.399Z,90.30
2023-02-16T22:42:36.942Z,79.37
2023-02-16T22:45:39.163Z,80.75
2023-02-16T22:48:42.617Z,87.50
2023-02-16T22:51:44.905Z,85.65
2023-02-16T22:54:51.467Z,78.62
2023-02-16T22:57:53.803Z,80.95
2023-02-16T23:00:56.475Z,78.72
2023-02-16T23:04:01.144Z,84.43
2023-02-16T23:07:03.692Z,75.18
2023-02-16T23:10:06.554Z,79.18
2023-02-16T23:13:09.412Z,76.85
2023-02-16T23:16:17.356Z,75.97
2023-02-16T23:19:23.388Z,78.93
2023-02-16T23:22:25.677Z,83.53
2023-02-16T23:25:34.084Z,82.30
2023-02-16T23:28:37.791Z,78.57
2023-02-16T23:31:43.005Z,83.72
2023-02-16T23:34:45.224Z,71.85
2023-02-16T23:37:47.730Z,78.10
2023-02-16T23:40:57.192Z,78.50
2023-02-16T23:44:01.140Z,79.78
2023-02-16T23:47:03.657Z,74.90
2023-02-16T23:50:06.778Z,84.45
2023-02-16T23:53:08.949Z,86.32
2023-02-16T23:56:22.237Z,75.55
2023-02-16T23:59:24.844Z,73.22
